Time;durP1;ratioP1;P1;durP2;ratioP2;P2;SDS_P1;SDS_P2;PMS_P1;PMS_P2;Temp;Humidity;BMP_temperature;BMP_pressure;BME280_temperature;BME280_humidity;BME280_pressure;Samples;Min_cycle;Max_cycle;Signal;HPM_P1;HPM_P2
2020/12/28 00:01:18;;;;;;;;;;;5.00;99.90;;;;;;5095053;28;19936;-88
2020/12/28 00:04:05;;;;;;;;;;;5.10;99.90;;;;;;5045176;28;19966;-89
2020/12/28 00:06:54;;;;;;;;;;;5.00;99.90;;;;;;5095139;28;20348;-89
2020/12/28 00:09:23;;;;;;;;;;;5.00;99.90;;;;;;5076204;28;19955;-87
2020/12/28 00:12:01;;;;;;;;;;;5.00;99.90;;;;;;5074760;28;19942;-88
2020/12/28 00:14:35;;;;;;;;;;;5.00;99.90;;;;;;5077786;28;20423;-88
2020/12/28 00:17:01;;;;;;;;;;;5.00;99.90;;;;;;5075142;28;19909;-89
2020/12/28 00:19:33;;;;;;;;;;;5.00;99.90;;;;;;5072882;28;19915;-88
2020/12/28 00:22:01;;;;;;;;;;;5.00;99.90;;;;;;5077723;28;20003;-88
2020/12/28 00:24:37;;;;;;;;;;;5.00;99.90;;;;;;5077722;28;19916;-88
2020/12/28 00:27:23;;;;;;;;;;;5.00;99.90;;;;;;5078060;28;19933;-89
2020/12/28 00:29:57;;;;;;;;;;;5.00;99.90;;;;;;5109699;27;20426;-88
2020/12/28 00:32:31;;;;;;;;;;;5.00;99.90;;;;;;5136103;27;19915;-88
2020/12/28 00:35:00;;;;;;;;;;;5.00;99.90;;;;;;5136313;27;20376;-88
2020/12/28 00:37:36;;;;;;;;;;;5.00;99.90;;;;;;5137364;27;19912;-88
2020/12/28 00:40:06;;;;;;;;;;;5.00;99.90;;;;;;5136320;27;19976;-88
2020/12/28 00:42:36;;;;;;;;;;;5.00;99.90;;;;;;5137066;27;19908;-88
2020/12/28 00:45:02;;;;;;;;;;;5.00;99.90;;;;;;5135712;27;19916;-88
2020/12/28 00:47:39;;;;;;;;;;;5.00;99.90;;;;;;5129676;27;19907;-88
2020/12/28 00:50:11;;;;;;;;;;;5.00;99.90;;;;;;5136150;27;19908;-89
2020/12/28 00:52:47;;;;;;;;;;;5.00;99.90;;;;;;5136049;27;19911;-88
2020/12/28 00:55:12;;;;;;;;;;;5.00;99.90;;;;;;5136041;27;19942;-88
2020/12/28 00:57:46;;;;;;;;;;;5.00;99.90;;;;;;5135966;27;20344;-89
2020/12/28 01:00:12;;;;;;;;;;;5.00;99.90;;;;;;5136753;27;20263;-89
2020/12/28 01:02:51;;;;;;;;;;;5.00;99.90;;;;;;5141433;27;19966;-89
2020/12/28 01:05:34;;;;;;;;;;;5.00;99.90;;;;;;5139301;27;19940;-88
2020/12/28 01:08:11;;;;;;;;;;;5.00;99.90;;;;;;5136186;27;19994;-88
2020/12/28 01:10:37;;;;;;;;;;;5.00;99.90;;;;;;5136797;27;19907;-88
2020/12/28 01:13:14;;;;;;;;;;;5.00;99.90;;;;;;5157763;27;19915;-89
2020/12/28 01:15:45;;;;;;;;;;;5.00;99.90;;;;;;5157887;27;19907;-89
2020/12/28 01:18:17;;;;;;;;;;;5.00;99.90;;;;;;5133894;27;19907;-90
2020/12/28 01:20:48;;;;;;;;;;;5.00;99.90;;;;;;5132874;27;19932;-88
2020/12/28 01:23:23;;;;;;;;;;;5.00;99.90;;;;;;5139008;27;19973;-88
2020/12/28 01:25:51;;;;;;;;;;;5.00;99.90;;;;;;5138687;27;19946;-87
2020/12/28 01:28:30;;;;;;;;;;;5.00;99.90;;;;;;5132090;27;19914;-88
2020/12/28 01:31:01;;;;;;;;;;;5.00;99.90;;;;;;5139525;27;19946;-88
2020/12/28 01:33:32;;;;;;;;;;;5.00;99.90;;;;;;5139135;27;19915;-89
2020/12/28 01:36:06;;;;;;;;;;;4.90;99.90;;;;;;5139142;27;20252;-88
2020/12/28 01:38:34;;;;;;;;;;;4.90;99.90;;;;;;5152949;27;19933;-88
2020/12/28 01:41:09;;;;;;;;;;;4.90;99.90;;;;;;5138595;27;20069;-88
2020/12/28 01:43:39;;;;;;;;;;;4.90;99.90;;;;;;5138940;27;19907;-88
2020/12/28 01:46:12;;;;;;;;;;;4.90;99.90;;;;;;5135687;27;19915;-88
2020/12/28 01:48:42;;;;;;;;;;;4.90;99.90;;;;;;5139315;27;19961;-88
2020/12/28 01:51:13;;;;;;;;;;;4.90;99.90;;;;;;5139143;27;19908;-87
2020/12/28 01:53:57;;;;;;;;;;;4.90;99.90;;;;;;5155470;27;20329;-88
2020/12/28 01:56:23;;;;;;;;;;;4.90;99.90;;;;;;5150165;27;20006;-88
2020/12/28 01:58:59;;;;;;;;;;;4.90;99.90;;;;;;5156564;27;19914;-88
2020/12/28 02:01:27;;;;;;;;;;;4.90;99.90;;;;;;5137776;27;19914;-88
2020/12/28 02:03:54;;;;;;;;;;;4.90;99.90;;;;;;5131781;27;19919;-88
2020/12/28 02:06:23;;;;;;;;;;;4.90;99.90;;;;;;5156630;27;19926;-88
2020/12/28 02:09:11;;;;;;;;;;;4.90;99.90;;;;;;5154351;27;19992;-89
2020/12/28 02:11:41;;;;;;;;;;;4.90;99.90;;;;;;5151486;27;19911;-88
2020/12/28 02:14:18;;;;;;;;;;;4.90;99.90;;;;;;5132922;27;19947;-88
2020/12/28 02:16:54;;;;;;;;;;;4.90;99.90;;;;;;5135454;27;19915;-88
2020/12/28 02:19:32;;;;;;;;;;;4.90;99.90;;;;;;5093719;28;19912;-88
2020/12/28 02:22:03;;;;;;;;;;;4.80;99.90;;;;;;5076131;28;20262;-89
2020/12/28 02:24:31;;;;;;;;;;;4.80;99.90;;;;;;5092206;28;20397;-88
2020/12/28 02:27:07;;;;;;;;;;;4.80;99.90;;;;;;5075461;28;19908;-88
2020/12/28 02:29:38;;;;;;;;;;;4.80;99.90;;;;;;5073668;28;19920;-88
2020/12/28 02:32:14;;;;;;;;;;;4.80;99.90;;;;;;5079309;28;20354;-88
2020/12/28 02:34:45;;;;;;;;;;;4.80;99.90;;;;;;5079676;28;19908;-89
2020/12/28 02:37:10;;;;;;;;;;;4.80;99.90;;;;;;5075514;28;20012;-88
2020/12/28 02:39:36;;;;;;;;;;;4.80;99.90;;;;;;5079541;28;19951;-89
2020/12/28 02:42:07;;;;;;;;;;;4.80;99.90;;;;;;5079350;28;19916;-89
2020/12/28 02:44:39;;;;;;;;;;;4.80;99.90;;;;;;5075767;28;19916;-89
2020/12/28 02:47:13;;;;;;;;;;;4.80;99.90;;;;;;5063223;28;19934;-89
2020/12/28 02:49:38;;;;;;;;;;;4.80;99.90;;;;;;5106217;27;19907;-89
2020/12/28 02:52:07;;;;;;;;;;;4.80;99.90;;;;;;5160038;27;20286;-88
2020/12/28 02:54:35;;;;;;;;;;;4.80;99.90;;;;;;5142153;27;19914;-88
2020/12/28 02:57:06;;;;;;;;;;;4.80;99.90;;;;;;5135936;27;20359;-88
2020/12/28 02:59:40;;;;;;;;;;;4.80;99.90;;;;;;5157095;27;20367;-89
2020/12/28 03:02:09;;;;;;;;;;;4.80;99.90;;;;;;5138007;27;20044;-88
2020/12/28 03:04:40;;;;;;;;;;;4.80;99.90;;;;;;5141539;27;19919;-89
2020/12/28 03:07:08;;;;;;;;;;;4.80;99.90;;;;;;5139782;27;19918;-89
2020/12/28 03:09:44;;;;;;;;;;;4.80;99.90;;;;;;5141036;27;20002;-88
2020/12/28 03:12:21;;;;;;;;;;;4.80;99.90;;;;;;5160295;27;19907;-89
2020/12/28 03:14:54;;;;;;;;;;;4.80;99.90;;;;;;5138515;27;19915;-89
2020/12/28 03:17:26;;;;;;;;;;;4.80;99.90;;;;;;5156136;27;19976;-90
2020/12/28 03:19:54;;;;;;;;;;;4.80;99.90;;;;;;5135051;27;20386;-89
2020/12/28 03:22:33;;;;;;;;;;;4.80;99.90;;;;;;5141964;27;19915;-89
2020/12/28 03:25:07;;;;;;;;;;;4.80;99.90;;;;;;5139858;27;19921;-89
2020/12/28 03:27:54;;;;;;;;;;;4.80;99.90;;;;;;5141389;27;20375;-88
2020/12/28 03:30:25;;;;;;;;;;;4.70;99.90;;;;;;5156813;27;19916;-89
2020/12/28 03:33:05;;;;;;;;;;;4.80;99.90;;;;;;5136249;27;19919;-89
2020/12/28 03:35:43;;;;;;;;;;;4.80;99.90;;;;;;5139298;27;19955;-88
2020/12/28 03:38:21;;;;;;;;;;;4.80;99.90;;;;;;5159321;27;20010;-88
2020/12/28 03:40:53;;;;;;;;;;;4.80;99.90;;;;;;5153902;27;19964;-89
2020/12/28 03:43:25;;;;;;;;;;;4.80;99.90;;;;;;5152791;27;19907;-88
2020/12/28 03:46:04;;;;;;;;;;;4.80;99.90;;;;;;5140898;27;19918;-89
2020/12/28 03:48:42;;;;;;;;;;;4.80;99.90;;;;;;5138956;27;20071;-89
2020/12/28 03:51:13;;;;;;;;;;;4.80;99.90;;;;;;5136395;27;19907;-88
2020/12/28 03:53:45;;;;;;;;;;;4.80;99.90;;;;;;5135730;27;19908;-89
2020/12/28 03:56:16;;;;;;;;;;;4.70;99.90;;;;;;5038427;28;19909;-88
2020/12/28 03:58:49;;;;;;;;;;;4.70;99.90;;;;;;5038188;28;19920;-89
2020/12/28 04:01:18;;;;;;;;;;;4.70;99.90;;;;;;5038392;28;19963;-90
2020/12/28 04:03:48;;;;;;;;;;;4.70;99.90;;;;;;5034997;28;19921;-88
2020/12/28 04:06:17;;;;;;;;;;;4.70;99.90;;;;;;5053011;28;19964;-89
2020/12/28 04:08:45;;;;;;;;;;;4.70;99.90;;;;;;5052214;28;19909;-89
2020/12/28 04:11:14;;;;;;;;;;;4.70;99.90;;;;;;5052040;28;19956;-88
2020/12/28 04:13:40;;;;;;;;;;;4.70;99.90;;;;;;5052835;28;20246;-89
2020/12/28 04:16:05;;;;;;;;;;;4.70;99.90;;;;;;5054933;28;19955;-89
2020/12/28 04:18:36;;;;;;;;;;;4.60;99.90;;;;;;5052197;28;19952;-89
2020/12/28 04:21:07;;;;;;;;;;;4.60;99.90;;;;;;5051388;28;19909;-88
2020/12/28 04:23:42;;;;;;;;;;;4.50;99.90;;;;;;5054571;28;19937;-88
2020/12/28 04:26:14;;;;;;;;;;;4.40;99.90;;;;;;5046877;27;19917;-89
2020/12/28 04:28:50;;;;;;;;;;;4.30;99.90;;;;;;5120335;27;19908;-89
2020/12/28 04:31:25;;;;;;;;;;;4.20;99.90;;;;;;5120136;27;20407;-89
2020/12/28 04:34:05;;;;;;;;;;;4.20;99.90;;;;;;5136378;27;19911;-89
2020/12/28 04:36:36;;;;;;;;;;;4.20;99.90;;;;;;5117426;27;20359;-89
2020/12/28 04:39:08;;;;;;;;;;;4.20;99.90;;;;;;5114592;27;19908;-89
2020/12/28 04:41:55;;;;;;;;;;;4.30;99.90;;;;;;5136968;27;19907;-89
2020/12/28 04:44:41;;;;;;;;;;;4.30;99.90;;;;;;5115980;27;20025;-89
2020/12/28 04:47:12;;;;;;;;;;;4.20;99.90;;;;;;5117057;27;19960;-89
2020/12/28 04:49:38;;;;;;;;;;;4.20;99.90;;;;;;5118466;27;19908;-89
2020/12/28 04:52:07;;;;;;;;;;;4.20;99.90;;;;;;5118965;27;19937;-89
2020/12/28 04:54:44;;;;;;;;;;;4.10;99.90;;;;;;5113378;27;19914;-89
2020/12/28 04:57:30;;;;;;;;;;;4.00;99.90;;;;;;5116150;27;20428;-89
2020/12/28 04:59:56;;;;;;;;;;;3.90;99.90;;;;;;5117282;27;19914;-88
2020/12/28 05:02:26;;;;;;;;;;;3.70;99.90;;;;;;5118642;27;19914;-89
2020/12/28 05:05:06;;;;;;;;;;;3.60;99.90;;;;;;5137222;27;19926;-89
2020/12/28 05:07:38;;;;;;;;;;;3.50;99.90;;;;;;5118292;27;19915;-88
2020/12/28 05:10:24;;;;;;;;;;;3.50;99.90;;;;;;5119070;27;19994;-88
2020/12/28 05:13:16;;;;;;;;;;;3.50;99.90;;;;;;5135918;27;19912;-89
2020/12/28 05:15:55;;;;;;;;;;;3.40;99.90;;;;;;5118573;27;19908;-88
2020/12/28 05:18:25;;;;;;;;;;;3.50;99.90;;;;;;5114314;27;20312;-89
2020/12/28 05:20:57;;;;;;;;;;;3.40;99.90;;;;;;5118664;28;20017;-89
2020/12/28 05:23:26;;;;;;;;;;;3.40;99.90;;;;;;5132343;27;19913;-89
2020/12/28 05:25:54;;;;;;;;;;;3.30;99.90;;;;;;5118154;27;19919;-89
2020/12/28 05:28:32;;;;;;;;;;;3.20;99.90;;;;;;5114539;27;19911;-89
2020/12/28 05:31:07;;;;;;;;;;;3.10;99.90;;;;;;5118706;27;20328;-89
2020/12/28 05:33:42;;;;;;;;;;;3.00;99.90;;;;;;5135946;27;20327;-89
2020/12/28 05:36:13;;;;;;;;;;;2.90;99.90;;;;;;5113441;27;19915;-89
2020/12/28 05:38:44;;;;;;;;;;;2.90;99.90;;;;;;5112474;27;19908;-90
2020/12/28 05:41:13;;;;;;;;;;;2.90;99.90;;;;;;5118369;27;20325;-89
2020/12/28 05:43:46;;;;;;;;;;;2.90;99.90;;;;;;5136071;27;20284;-90
2020/12/28 05:46:20;;;;;;;;;;;2.90;99.90;;;;;;5115295;27;19942;-89
2020/12/28 05:48:55;;;;;;;;;;;2.90;99.90;;;;;;5135993;27;19912;-89
2020/12/28 05:51:24;;;;;;;;;;;2.80;99.90;;;;;;5117007;28;19907;-89
2020/12/28 05:54:02;;;;;;;;;;;2.80;99.90;;;;;;5135693;28;19915;-89
2020/12/28 05:56:33;;;;;;;;;;;2.80;99.90;;;;;;5115889;28;19918;-89
2020/12/28 05:59:03;;;;;;;;;;;2.80;99.90;;;;;;5114411;28;19915;-89
2020/12/28 06:01:40;;;;;;;;;;;2.90;99.90;;;;;;5120652;28;20356;-89
2020/12/28 06:04:12;;;;;;;;;;;3.00;99.90;;;;;;5129049;28;20390;-89
2020/12/28 06:06:55;;;;;;;;;;;3.10;99.90;;;;;;5138954;27;20018;-89
2020/12/28 06:09:26;;;;;;;;;;;3.20;99.90;;;;;;5140007;27;19914;-90
2020/12/28 06:12:27;;;;;;;;;;;3.30;99.90;;;;;;5140433;27;19908;-89
2020/12/28 06:14:59;;;;;;;;;;;3.30;99.90;;;;;;5118125;27;19908;-89
2020/12/28 06:17:37;;;;;;;;;;;3.40;99.90;;;;;;5134583;27;20368;-89
2020/12/28 06:20:04;;;;;;;;;;;3.40;99.90;;;;;;5132910;27;19907;-89
2020/12/28 06:22:33;;;;;;;;;;;3.40;99.90;;;;;;5132804;27;20278;-91
2020/12/28 06:25:14;;;;;;;;;;;3.50;99.90;;;;;;5139464;27;19915;-90
2020/12/28 06:27:43;;;;;;;;;;;3.50;99.90;;;;;;5139244;27;19961;-89
2020/12/28 06:30:12;;;;;;;;;;;3.60;99.90;;;;;;5139530;27;20002;-88
2020/12/28 06:32:45;;;;;;;;;;;3.60;99.90;;;;;;5139275;27;19967;-88
2020/12/28 06:35:29;;;;;;;;;;;3.60;99.90;;;;;;5124544;27;19947;-89
2020/12/28 06:37:57;;;;;;;;;;;3.60;99.90;;;;;;5117925;28;19908;-89
2020/12/28 06:40:37;;;;;;;;;;;3.60;99.90;;;;;;5118665;28;19907;-89
2020/12/28 06:43:34;;;;;;;;;;;3.70;99.90;;;;;;5118261;28;20047;-89
2020/12/28 06:46:10;;;;;;;;;;;3.70;99.90;;;;;;5013589;28;20436;-89
2020/12/28 06:48:42;;;;;;;;;;;3.70;99.90;;;;;;5120673;27;19982;-90
2020/12/28 06:51:13;;;;;;;;;;;3.70;99.90;;;;;;5115447;28;19908;-90
2020/12/28 06:53:44;;;;;;;;;;;3.70;99.90;;;;;;5118002;28;20340;-89
2020/12/28 06:56:17;;;;;;;;;;;3.70;99.90;;;;;;5117679;28;19915;-90
2020/12/28 06:58:57;;;;;;;;;;;;;;;;;;;;;
2020/12/28 07:01:26;;;;;;;;;;;3.70;99.90;;;;;;5118235;28;19908;-88
2020/12/28 07:03:53;;;;;;;;;;;3.70;99.90;;;;;;5117684;27;20253;-88
2020/12/28 07:06:24;;;;;;;;;;;3.60;99.90;;;;;;5124993;27;19923;-88
2020/12/28 07:09:06;;;;;;;;;;;3.50;99.90;;;;;;5130605;27;19920;-88
2020/12/28 07:11:35;;;;;;;;;;;3.30;99.90;;;;;;5129270;27;20306;-86
2020/12/28 07:14:17;;;;;;;;;;;3.20;99.90;;;;;;5122758;27;19908;-87
2020/12/28 07:16:48;;;;;;;;;;;3.10;99.90;;;;;;5125929;27;19986;-87
2020/12/28 07:19:32;;;;;;;;;;;2.90;99.90;;;;;;5126194;27;20390;-88
2020/12/28 07:22:05;;;;;;;;;;;2.90;99.90;;;;;;5129244;27;19931;-88
2020/12/28 07:24:44;;;;;;;;;;;2.90;99.90;;;;;;5139330;27;19907;-88
2020/12/28 07:27:16;;;;;;;;;;;2.90;99.90;;;;;;5139497;27;20267;-85
2020/12/28 07:29:44;;;;;;;;;;;2.90;99.90;;;;;;5132932;27;19914;-87
2020/12/28 07:32:16;;;;;;;;;;;3.00;99.90;;;;;;5138223;27;19908;-87
2020/12/28 07:35:02;;;;;;;;;;;3.10;99.90;;;;;;5136979;27;19960;-87
2020/12/28 07:37:35;;;;;;;;;;;3.20;99.90;;;;;;5135549;27;19982;-87
2020/12/28 07:40:18;;;;;;;;;;;3.20;99.90;;;;;;5137230;27;20002;-87
2020/12/28 07:42:47;;;;;;;;;;;3.30;99.90;;;;;;5136235;27;20000;-88
2020/12/28 07:45:22;;;;;;;;;;;3.40;99.90;;;;;;5136584;27;19919;-87
2020/12/28 07:47:54;;;;;;;;;;;3.40;99.90;;;;;;5135756;27;19911;-87
2020/12/28 07:50:20;;;;;;;;;;;3.50;99.90;;;;;;5130653;27;19911;-87
2020/12/28 07:52:53;;;;;;;;;;;3.50;99.90;;;;;;5134563;27;19972;-88
2020/12/28 07:55:27;;;;;;;;;;;3.60;99.90;;;;;;5136299;27;19907;-88
2020/12/28 07:58:14;;;;;;;;;;;3.60;99.90;;;;;;5136177;27;19907;-88
2020/12/28 08:00:45;;;;;;;;;;;3.60;99.90;;;;;;5135580;27;19907;-88
2020/12/28 08:03:40;;;;;;;;;;;3.60;99.90;;;;;;5136145;27;19941;-88
2020/12/28 08:06:06;;;;;;;;;;;3.60;99.90;;;;;;5091247;27;19916;-87
2020/12/28 08:08:40;;;;;;;;;;;3.70;99.90;;;;;;5136469;27;19914;-86
2020/12/28 08:11:09;;;;;;;;;;;3.70;99.90;;;;;;5137309;27;19915;-87
2020/12/28 08:13:41;;;;;;;;;;;3.60;99.90;;;;;;5136828;27;19907;-87
2020/12/28 08:16:10;;;;;;;;;;;3.60;99.90;;;;;;5136311;27;19911;-87
2020/12/28 08:18:51;;;;;;;;;;;3.60;99.90;;;;;;5136302;27;19915;-88
2020/12/28 08:21:36;;;;;;;;;;;3.70;99.90;;;;;;5123947;27;19998;-88
2020/12/28 08:24:08;;;;;;;;;;;3.70;99.90;;;;;;5129447;27;19952;-88
2020/12/28 08:26:45;;;;;;;;;;;3.70;99.90;;;;;;5130605;27;20425;-89
2020/12/28 08:29:11;;;;;;;;;;;3.70;99.90;;;;;;5135018;27;19907;-88
2020/12/28 08:31:45;;;;;;;;;;;3.70;99.90;;;;;;5132372;27;19916;-92
2020/12/28 08:34:15;;;;;;;;;;;3.70;99.90;;;;;;5136300;27;19908;-90
2020/12/28 08:36:53;;;;;;;;;;;3.80;99.90;;;;;;5135599;27;20435;-90
2020/12/28 08:39:24;;;;;;;;;;;3.80;99.90;;;;;;5135981;27;19957;-89
2020/12/28 08:41:56;;;;;;;;;;;3.80;99.90;;;;;;5136207;27;19915;-89
2020/12/28 08:44:29;;;;;;;;;;;3.80;99.90;;;;;;5136477;27;20384;-89
2020/12/28 08:46:59;;;;;;;;;;;3.90;99.90;;;;;;5136012;27;19912;-90
2020/12/28 08:49:42;;;;;;;;;;;3.90;99.90;;;;;;5119244;27;20428;-90
2020/12/28 08:52:20;;;;;;;;;;;4.00;99.90;;;;;;5098378;28;20249;-90
2020/12/28 08:55:05;;;;;;;;;;;4.00;99.90;;;;;;5098134;28;20325;-90
2020/12/28 08:57:38;;;;;;;;;;;4.10;99.90;;;;;;5097931;28;19947;-90
2020/12/28 09:00:09;;;;;;;;;;;4.10;99.90;;;;;;5115528;28;20387;-89
2020/12/28 09:02:54;;;;;;;;;;;4.20;99.90;;;;;;5099102;27;19911;-89
2020/12/28 09:05:50;;;;;;;;;;;4.40;99.90;;;;;;5118992;27;20544;-89
2020/12/28 09:08:19;;;;;;;;;;;4.50;99.90;;;;;;5134683;27;19911;-89
2020/12/28 09:10:55;;;;;;;;;;;4.50;99.90;;;;;;5142899;27;19907;-89
2020/12/28 09:13:29;;;;;;;;;;;4.50;99.90;;;;;;5134094;27;19998;-89
2020/12/28 09:15:58;;;;;;;;;;;4.40;99.90;;;;;;5138179;27;19915;-90
2020/12/28 09:18:26;;;;;;;;;;;4.40;99.90;;;;;;5155798;27;19911;-89
2020/12/28 09:20:57;;;;;;;;;;;4.50;99.90;;;;;;5118218;27;19911;-89
2020/12/28 09:23:35;;;;;;;;;;;4.40;99.90;;;;;;5129673;27;19911;-89
2020/12/28 09:26:14;;;;;;;;;;;4.40;99.90;;;;;;5154761;27;19919;-90
2020/12/28 09:28:56;;;;;;;;;;;4.40;99.90;;;;;;5127270;27;19933;-88
2020/12/28 09:31:27;;;;;;;;;;;4.50;99.90;;;;;;5156866;27;20378;-89
2020/12/28 09:33:57;;;;;;;;;;;4.60;99.90;;;;;;5129158;27;19907;-89
2020/12/28 09:36:24;;;;;;;;;;;4.60;99.90;;;;;;5133756;27;19914;-89
2020/12/28 09:38:57;;;;;;;;;;;4.70;99.90;;;;;;5133882;27;19938;-89
2020/12/28 09:41:31;;;;;;;;;;;4.70;99.90;;;;;;5116562;27;19912;-89
2020/12/28 09:44:19;;;;;;;;;;;4.80;99.90;;;;;;5133923;27;20279;-90
2020/12/28 09:46:53;;;;;;;;;;;4.90;99.90;;;;;;5135293;27;20376;-90
2020/12/28 09:49:25;;;;;;;;;;;5.00;99.90;;;;;;5113305;28;19911;-89
2020/12/28 09:52:00;;;;;;;;;;;5.20;99.90;;;;;;5122107;27;19914;-89
2020/12/28 09:54:34;;;;;;;;;;;5.40;99.90;;;;;;5146335;27;19919;-88
2020/12/28 09:57:06;;;;;;;;;;;5.30;99.90;;;;;;5135223;28;19911;-88
2020/12/28 09:59:35;;;;;;;;;;;5.20;99.90;;;;;;5116254;28;19907;-87
2020/12/28 10:02:07;;;;;;;;;;;5.30;99.90;;;;;;5116464;28;19964;-87
2020/12/28 10:04:36;;;;;;;;;;;5.40;99.90;;;;;;5116828;28;20432;-87
2020/12/28 10:07:06;;;;;;;;;;;5.50;99.90;;;;;;5114055;28;19923;-89
2020/12/28 10:09:35;;;;;;;;;;;5.40;99.90;;;;;;5116778;28;19912;-89
2020/12/28 10:12:07;;;;;;;;;;;5.40;99.90;;;;;;5117058;28;19946;-88
2020/12/28 10:14:43;;;;;;;;;;;5.40;99.90;;;;;;5117265;28;20360;-88
2020/12/28 10:17:13;;;;;;;;;;;5.60;99.90;;;;;;5117450;28;19956;-90
2020/12/28 10:19:47;;;;;;;;;;;5.60;99.90;;;;;;5117437;28;19911;-89
2020/12/28 10:22:18;;;;;;;;;;;5.70;99.90;;;;;;5140370;27;19911;-90
2020/12/28 10:24:44;;;;;;;;;;;5.80;99.90;;;;;;5142927;27;20395;-89
2020/12/28 10:27:18;;;;;;;;;;;5.90;99.90;;;;;;5145976;27;19912;-89
2020/12/28 10:29:49;;;;;;;;;;;6.00;99.90;;;;;;5126598;28;19951;-90
2020/12/28 10:32:29;;;;;;;;;;;6.10;99.90;;;;;;5135613;28;19911;-90
2020/12/28 10:35:12;;;;;;;;;;;6.00;99.90;;;;;;5134844;28;19915;-89
2020/12/28 10:37:38;;;;;;;;;;;5.90;99.90;;;;;;5121600;28;19914;-88
2020/12/28 10:40:06;;;;;;;;;;;5.80;99.90;;;;;;5117990;28;19907;-90
2020/12/28 10:42:35;;;;;;;;;;;5.60;99.90;;;;;;5116694;28;20002;-89
2020/12/28 10:45:10;;;;;;;;;;;5.60;99.90;;;;;;5134882;28;19911;-89
2020/12/28 10:47:39;;;;;;;;;;;5.70;99.90;;;;;;5135180;28;19912;-89
2020/12/28 10:50:24;;;;;;;;;;;5.70;99.90;;;;;;5111765;28;19907;-89
2020/12/28 10:52:53;;;;;;;;;;;5.70;99.90;;;;;;5119778;27;19908;-89
2020/12/28 10:55:25;;;;;;;;;;;5.70;99.90;;;;;;5132108;27;19962;-89
2020/12/28 10:58:05;;;;;;;;;;;5.60;99.90;;;;;;5139410;27;19908;-89
2020/12/28 11:00:41;;;;;;;;;;;5.60;99.90;;;;;;5121295;27;19915;-87
2020/12/28 11:03:11;;;;;;;;;;;5.70;99.90;;;;;;5124800;27;19923;-89
2020/12/28 11:05:39;;;;;;;;;;;5.70;99.90;;;;;;5120557;27;19915;-89
2020/12/28 11:08:12;;;;;;;;;;;5.80;99.90;;;;;;5103746;27;19942;-88
2020/12/28 11:10:41;;;;;;;;;;;5.90;99.90;;;;;;5117030;27;19907;-89
2020/12/28 11:13:09;;;;;;;;;;;6.10;99.90;;;;;;5120404;27;19960;-89
2020/12/28 11:15:37;;;;;;;;;;;6.50;99.90;;;;;;5115085;27;20294;-88
2020/12/28 11:18:16;;;;;;;;;;;7.00;99.90;;;;;;5084162;27;19911;-90
2020/12/28 11:20:47;;;;;;;;;;;7.20;99.90;;;;;;5120629;27;20262;-89
2020/12/28 11:23:18;;;;;;;;;;;7.30;99.90;;;;;;5090250;28;19915;-89
2020/12/28 11:25:52;;;;;;;;;;;7.50;99.90;;;;;;5091967;28;19958;-90
2020/12/28 11:28:26;;;;;;;;;;;7.50;99.90;;;;;;5092192;28;19907;-90
2020/12/28 11:31:06;;;;;;;;;;;7.70;99.90;;;;;;5076309;28;19941;-89
2020/12/28 11:33:58;;;;;;;;;;;7.90;99.90;;;;;;5093822;28;19968;-90
2020/12/28 11:36:28;;;;;;;;;;;7.90;99.90;;;;;;5095669;28;19908;-89
2020/12/28 11:38:59;;;;;;;;;;;7.90;99.90;;;;;;5061364;28;19958;-87
2020/12/28 11:41:34;;;;;;;;;;;8.00;99.90;;;;;;5095130;28;20380;-88
2020/12/28 11:44:03;;;;;;;;;;;8.20;99.90;;;;;;5074894;28;19908;-89
2020/12/28 11:47:06;;;;;;;;;;;8.30;99.90;;;;;;5097974;27;20410;-88
2020/12/28 11:49:37;;;;;;;;;;;8.20;99.90;;;;;;5117113;27;19951;-88
2020/12/28 11:52:06;;;;;;;;;;;8.10;99.90;;;;;;5114443;27;19911;-87
2020/12/28 11:54:40;;;;;;;;;;;7.90;99.90;;;;;;5119880;27;19951;-89
2020/12/28 11:57:11;;;;;;;;;;;7.80;99.90;;;;;;5118932;27;20085;-88
2020/12/28 11:59:41;;;;;;;;;;;7.70;99.90;;;;;;5119269;27;19912;-88
2020/12/28 12:02:11;;;;;;;;;;;7.60;99.90;;;;;;5118751;27;19911;-88
2020/12/28 12:04:49;;;;;;;;;;;7.60;99.90;;;;;;5118437;27;19974;-88
2020/12/28 12:07:31;;;;;;;;;;;7.50;99.90;;;;;;5137477;27;19911;-88
2020/12/28 12:10:02;;;;;;;;;;;7.40;99.90;;;;;;5119138;27;19954;-88
2020/12/28 12:12:28;;;;;;;;;;;7.30;99.90;;;;;;5136631;27;19914;-89
2020/12/28 12:15:02;;;;;;;;;;;7.20;99.90;;;;;;5119116;27;19908;-89
2020/12/28 12:17:38;;;;;;;;;;;7.10;99.90;;;;;;5134488;27;19908;-89
2020/12/28 12:20:18;;;;;;;;;;;7.00;99.90;;;;;;5115547;27;19908;-88
2020/12/28 12:22:57;;;;;;;;;;;6.90;99.90;;;;;;5073780;28;19962;-89
2020/12/28 12:25:29;;;;;;;;;;;6.70;99.90;;;;;;5057409;28;19967;-88
2020/12/28 12:28:00;;;;;;;;;;;6.60;99.90;;;;;;5041174;28;19912;-89
2020/12/28 12:30:36;;;;;;;;;;;6.50;99.90;;;;;;5073556;28;19908;-89
2020/12/28 12:33:16;;;;;;;;;;;6.50;99.90;;;;;;5057343;28;20297;-89
2020/12/28 12:36:05;;;;;;;;;;;6.40;99.90;;;;;;5056724;28;19919;-89
2020/12/28 12:38:53;;;;;;;;;;;6.30;99.90;;;;;;5055793;28;19959;-89
2020/12/28 12:41:44;;;;;;;;;;;6.20;99.90;;;;;;5073370;28;19909;-89
2020/12/28 12:44:22;;;;;;;;;;;6.10;99.90;;;;;;5056487;28;19908;-89
2020/12/28 12:46:58;;;;;;;;;;;6.10;99.90;;;;;;5073444;28;20321;-88
2020/12/28 12:49:26;;;;;;;;;;;6.00;99.90;;;;;;5054110;28;19909;-89
2020/12/28 12:52:14;;;;;;;;;;;6.00;99.90;;;;;;5073476;28;19936;-89
2020/12/28 12:54:49;;;;;;;;;;;6.00;99.90;;;;;;5107562;27;19908;-89
2020/12/28 12:57:20;;;;;;;;;;;6.10;99.90;;;;;;5118402;27;19908;-89
2020/12/28 13:00:09;;;;;;;;;;;6.20;99.90;;;;;;5112760;27;19908;-89
2020/12/28 13:02:43;;;;;;;;;;;6.50;99.90;;;;;;5117394;27;19945;-89
2020/12/28 13:05:18;;;;;;;;;;;7.00;99.90;;;;;;5117939;27;19916;-89
2020/12/28 13:07:46;;;;;;;;;;;7.40;99.90;;;;;;5111520;27;19907;-89
2020/12/28 13:10:17;;;;;;;;;;;7.90;99.90;;;;;;5113850;28;20001;-89
2020/12/28 13:12:46;;;;;;;;;;;8.70;99.90;;;;;;5096364;28;19914;-87
2020/12/28 13:15:16;;;;;;;;;;;9.60;99.90;;;;;;5094653;28;19908;-89
2020/12/28 13:17:49;;;;;;;;;;;10.20;99.90;;;;;;5096421;28;19911;-89
2020/12/28 13:20:26;;;;;;;;;;;10.60;99.90;;;;;;5093573;28;19933;-89
2020/12/28 13:22:58;;;;;;;;;;;10.60;96.40;;;;;;5093602;28;20366;-89
2020/12/28 13:25:30;;;;;;;;;;;10.50;95.70;;;;;;5095866;28;19912;-89
2020/12/28 13:28:04;;;;;;;;;;;10.40;95.50;;;;;;5096413;28;19951;-89
2020/12/28 13:30:46;;;;;;;;;;;10.00;93.90;;;;;;5112920;28;19908;-89
2020/12/28 13:33:19;;;;;;;;;;;9.50;94.80;;;;;;5096271;28;19930;-89
2020/12/28 13:35:58;;;;;;;;;;;8.90;96.10;;;;;;5093146;28;19912;-88
2020/12/28 13:38:27;;;;;;;;;;;8.50;97.70;;;;;;5096021;28;20284;-89
2020/12/28 13:40:57;;;;;;;;;;;8.10;98.40;;;;;;5099911;27;19908;-89
2020/12/28 13:46:30;;;;;;;;;;;7.30;99.90;;;;;;5103174;27;20400;-89
2020/12/28 13:49:11;;;;;;;;;;;6.90;99.90;;;;;;5117135;27;19914;-89
2020/12/28 13:51:41;;;;;;;;;;;6.80;99.90;;;;;;5117080;27;19911;-89
2020/12/28 13:54:20;;;;;;;;;;;6.50;99.90;;;;;;5113001;27;19937;-89
2020/12/28 13:57:14;;;;;;;;;;;6.40;99.90;;;;;;5134890;28;19960;-90
2020/12/28 13:59:43;;;;;;;;;;;6.20;99.90;;;;;;5135330;28;20292;-89
2020/12/28 14:02:15;;;;;;;;;;;6.10;99.90;;;;;;5111548;28;19933;-89
2020/12/28 14:04:53;;;;;;;;;;;6.00;99.90;;;;;;5117160;28;19919;-90
2020/12/28 14:07:35;;;;;;;;;;;5.80;99.90;;;;;;5132880;28;19912;-89
2020/12/28 14:10:12;;;;;;;;;;;5.80;99.90;;;;;;5130505;28;19911;-89
2020/12/28 14:12:40;;;;;;;;;;;5.60;99.90;;;;;;5117297;28;20364;-89
2020/12/28 14:15:15;;;;;;;;;;;5.60;99.90;;;;;;5117035;28;20368;-90
2020/12/28 14:17:49;;;;;;;;;;;5.50;99.90;;;;;;5113825;28;19911;-89
2020/12/28 14:20:23;;;;;;;;;;;5.40;99.90;;;;;;5116767;28;20015;-89
2020/12/28 14:23:02;;;;;;;;;;;5.30;99.90;;;;;;5135281;28;19908;-89
2020/12/28 14:28:25;;;;;;;;;;;5.20;99.90;;;;;;5128157;27;19919;-90
2020/12/28 14:30:51;;;;;;;;;;;5.10;99.90;;;;;;5121036;27;19957;-89
2020/12/28 14:33:24;;;;;;;;;;;5.00;99.90;;;;;;5139589;27;19915;-89
2020/12/28 14:35:58;;;;;;;;;;;5.00;99.90;;;;;;5120565;27;19907;-89
2020/12/28 14:38:31;;;;;;;;;;;4.90;99.90;;;;;;5120902;27;19919;-89
2020/12/28 14:40:59;;;;;;;;;;;4.80;99.90;;;;;;5116295;27;20329;-88
2020/12/28 14:43:33;;;;;;;;;;;4.80;99.90;;;;;;5120817;27;19907;-89
2020/12/28 14:46:10;;;;;;;;;;;4.70;99.90;;;;;;5120323;27;20014;-90
2020/12/28 14:48:44;;;;;;;;;;;4.70;99.90;;;;;;5139499;27;20275;-89
2020/12/28 14:51:15;;;;;;;;;;;4.70;99.90;;;;;;5120670;27;20001;-89
2020/12/28 14:53:46;;;;;;;;;;;4.60;99.90;;;;;;5120783;27;20326;-89
2020/12/28 14:56:41;;;;;;;;;;;4.60;99.90;;;;;;5120827;27;19907;-89
2020/12/28 14:59:12;;;;;;;;;;;4.60;99.90;;;;;;5129447;27;20291;-89
2020/12/28 15:01:54;;;;;;;;;;;4.50;99.90;;;;;;5114625;27;19907;-89
2020/12/28 15:04:48;;;;;;;;;;;4.40;99.90;;;;;;5120387;27;20367;-89
2020/12/28 15:07:20;;;;;;;;;;;4.30;99.90;;;;;;5120727;27;19976;-89
2020/12/28 15:10:14;;;;;;;;;;;4.30;99.90;;;;;;5120095;27;19914;-89
2020/12/28 15:12:53;;;;;;;;;;;4.20;99.90;;;;;;5110761;27;19911;-89
2020/12/28 15:15:21;;;;;;;;;;;4.20;99.90;;;;;;5135512;27;19915;-89
2020/12/28 15:17:58;;;;;;;;;;;4.10;99.90;;;;;;5119908;27;20268;-89